Terminal Aerodrome Forecast
Issued by NWS Mt. Holly, NJ

Home | Current Version | Previous Version | Text Only | Print | Product List | Glossary On
Versions: 1 2 3 4 5 6 7 8 9 10 11 12 13 14 15
633
FTUS41 KPHI 260555
TAFILG
TAF
KILG 260555Z 2606/2706 36009KT P6SM OVC007
      TEMPO 2606/2608 5SM -SHRA
     FM261000 01007KT 3SM BR OVC003
     FM261300 36008KT P6SM OVC003
     FM261500 01007KT P6SM OVC008
     FM261900 VRB03KT P6SM BKN020
     FM270200 00000KT P6SM BKN015=

USA.gov is the U.S. government's official web portal to all federal, state and local government web resources and services.